Time;durP1;ratioP1;P1;durP2;ratioP2;P2;SDS_P1;SDS_P2;PMS_P1;PMS_P2;Temp;Humidity;BMP_temperature;BMP_pressure;BME280_temperature;BME280_humidity;BME280_pressure;Samples;Min_cycle;Max_cycle;Signal;HPM_P1;HPM_P2
2024/03/16 00:00:41;;;;;;;3.70;2.53;;;22.50;56.20;;;;;;5030046;28;20180;-71
2024/03/16 00:03:09;;;;;;;3.07;2.50;;;22.50;56.20;;;;;;5030188;28;20172;-71
2024/03/16 00:05:38;;;;;;;2.90;2.23;;;22.50;56.20;;;;;;5029818;28;20200;-70
2024/03/16 00:08:04;;;;;;;2.53;1.97;;;22.50;56.20;;;;;;5029840;28;20432;-70
2024/03/16 00:10:31;;;;;;;3.07;1.87;;;22.50;56.20;;;;;;5029805;28;20413;-70
2024/03/16 00:12:56;;;;;;;2.67;2.03;;;22.50;56.20;;;;;;5029857;28;20413;-69
2024/03/16 00:15:22;;;;;;;2.33;1.80;;;22.50;56.20;;;;;;5029682;28;20438;-70
2024/03/16 00:17:49;;;;;;;3.13;2.00;;;22.50;56.20;;;;;;5029852;28;20179;-71
2024/03/16 00:20:17;;;;;;;2.90;2.60;;;22.50;56.20;;;;;;5029793;28;20214;-70
2024/03/16 00:22:43;;;;;;;2.90;1.93;;;22.50;56.20;;;;;;5015425;28;20429;-70
2024/03/16 00:25:08;;;;;;;3.90;2.50;;;22.50;56.20;;;;;;5033643;28;20430;-70
2024/03/16 00:27:34;;;;;;;3.63;2.37;;;22.50;56.20;;;;;;5033501;28;20533;-70
2024/03/16 00:30:00;;;;;;;2.87;2.23;;;22.50;56.20;;;;;;5033582;28;20267;-69
2024/03/16 00:32:26;;;;;;;2.80;2.50;;;22.50;56.20;;;;;;5033582;28;20178;-70
2024/03/16 00:34:52;;;;;;;2.40;2.20;;;22.50;56.20;;;;;;5033319;28;20505;-71
2024/03/16 00:37:18;;;;;;;3.97;2.40;;;22.50;56.20;;;;;;5033443;28;20215;-71
2024/03/16 00:39:43;;;;;;;2.37;2.17;;;22.50;56.20;;;;;;5033405;28;20172;-71
2024/03/16 00:42:12;;;;;;;3.47;2.63;;;22.50;56.80;;;;;;5033313;28;20255;-70
2024/03/16 00:44:37;;;;;;;3.07;2.20;;;22.50;56.20;;;;;;5033128;28;20203;-71
2024/03/16 00:47:03;;;;;;;2.80;1.97;;;22.50;56.20;;;;;;5033160;28;20473;-70
2024/03/16 00:49:28;;;;;;;2.80;1.93;;;22.50;56.20;;;;;;5033229;28;20195;-70
2024/03/16 00:51:54;;;;;;;2.13;1.90;;;22.50;56.20;;;;;;5033182;28;20178;-70
2024/03/16 00:54:20;;;;;;;2.60;1.80;;;22.40;56.10;;;;;;5033327;28;20952;-70
2024/03/16 00:56:46;;;;;;;2.30;1.90;;;22.40;56.10;;;;;;5033094;28;20183;-71
2024/03/16 00:59:12;;;;;;;2.33;2.03;;;22.40;56.10;;;;;;5033008;28;20168;-70
2024/03/16 01:01:38;;;;;;;2.80;2.07;;;22.40;56.10;;;;;;5033260;28;20445;-70
2024/03/16 01:04:04;;;;;;;2.33;1.60;;;22.40;56.20;;;;;;5032808;28;20460;-70
2024/03/16 01:06:30;;;;;;;2.50;1.80;;;22.40;56.20;;;;;;5032803;28;20782;-70
2024/03/16 01:08:56;;;;;;;1.97;1.60;;;22.40;56.10;;;;;;5032833;28;20459;-70
2024/03/16 01:11:23;;;;;;;3.43;1.87;;;22.40;56.10;;;;;;5032699;28;20406;-69
2024/03/16 01:13:49;;;;;;;2.57;1.80;;;22.40;56.20;;;;;;5014884;28;20543;-70
2024/03/16 01:16:15;;;;;;;2.03;1.80;;;22.40;56.20;;;;;;5032715;28;20426;-68
2024/03/16 01:18:40;;;;;;;3.47;2.20;;;22.40;56.20;;;;;;5032606;28;20422;-70
2024/03/16 01:21:06;;;;;;;2.67;1.80;;;22.40;56.20;;;;;;5032674;28;20658;-70
2024/03/16 01:23:33;;;;;;;3.20;1.63;;;22.40;56.20;;;;;;5032438;28;20183;-70
2024/03/16 01:25:59;;;;;;;2.00;1.60;;;22.40;56.20;;;;;;5032448;28;20192;-70
2024/03/16 01:28:25;;;;;;;3.17;1.80;;;22.40;56.20;;;;;;5032557;28;20497;-70
2024/03/16 01:30:51;;;;;;;2.97;2.60;;;22.40;56.20;;;;;;5032470;28;20521;-70
2024/03/16 01:33:18;;;;;;;2.70;2.00;;;22.40;56.20;;;;;;5031514;28;20164;-69
2024/03/16 01:35:43;;;;;;;2.30;2.10;;;22.40;56.20;;;;;;5032296;28;20450;-69
2024/03/16 01:38:09;;;;;;;2.60;1.97;;;22.40;56.20;;;;;;5032267;28;20492;-70
2024/03/16 01:40:35;;;;;;;3.30;2.50;;;22.40;56.20;;;;;;5032235;28;20172;-70
2024/03/16 01:43:00;;;;;;;2.90;1.70;;;22.40;56.20;;;;;;5032414;28;20182;-70
2024/03/16 01:45:27;;;;;;;2.90;2.23;;;22.30;56.10;;;;;;5031836;28;20222;-70
2024/03/16 01:47:54;;;;;;;2.90;1.97;;;22.40;56.20;;;;;;5032068;28;20179;-70
2024/03/16 01:50:21;;;;;;;2.30;1.70;;;22.40;56.20;;;;;;5031977;28;20983;-70
2024/03/16 01:52:47;;;;;;;3.03;2.10;;;22.40;56.20;;;;;;5031978;28;20407;-70
2024/03/16 01:55:13;;;;;;;2.10;1.90;;;22.40;56.20;;;;;;5031921;28;20431;-70
2024/03/16 01:57:39;;;;;;;3.43;2.10;;;22.40;56.20;;;;;;5031830;28;20522;-70
2024/03/16 02:00:06;;;;;;;3.30;1.77;;;22.40;56.20;;;;;;5031849;28;20905;-70
2024/03/16 02:02:34;;;;;;;2.20;1.90;;;22.40;56.20;;;;;;5031720;28;20598;-70
2024/03/16 02:05:01;;;;;;;2.40;1.60;;;22.30;56.10;;;;;;5031657;28;20438;-70
2024/03/16 02:07:26;;;;;;;2.57;1.60;;;22.40;56.20;;;;;;5031597;28;20458;-70
2024/03/16 02:09:52;;;;;;;2.70;1.90;;;22.40;56.20;;;;;;5031534;28;20468;-70
2024/03/16 02:12:18;;;;;;;2.73;1.77;;;22.40;56.20;;;;;;5031570;28;20182;-70
2024/03/16 02:14:44;;;;;;;2.60;1.60;;;22.40;56.20;;;;;;5031488;28;20222;-70
2024/03/16 02:17:11;;;;;;;2.90;1.90;;;22.40;56.20;;;;;;5031655;28;20422;-70
2024/03/16 02:19:37;;;;;;;2.50;2.10;;;22.40;56.20;;;;;;5031664;28;20180;-70
2024/03/16 02:22:05;;;;;;;1.70;1.50;;;22.40;56.40;;;;;;5031453;28;20940;-70
2024/03/16 02:24:32;;;;;;;2.87;2.00;;;22.40;56.20;;;;;;5013379;28;20441;-70
2024/03/16 02:26:58;;;;;;;2.33;1.80;;;22.40;56.20;;;;;;5031168;28;20450;-70
2024/03/16 02:29:24;;;;;;;2.73;2.17;;;22.40;56.20;;;;;;5031168;28;20505;-69
2024/03/16 02:31:50;;;;;;;2.27;2.07;;;22.40;56.20;;;;;;5031166;28;20961;-70
2024/03/16 02:34:16;;;;;;;3.73;2.20;;;22.40;56.20;;;;;;5031032;28;20245;-69
2024/03/16 02:36:42;;;;;;;3.00;1.63;;;22.40;56.20;;;;;;5031198;28;20238;-70
2024/03/16 02:39:11;;;;;;;1.90;1.67;;;22.40;56.20;;;;;;5030961;28;20411;-70
2024/03/16 02:41:36;;;;;;;2.03;1.53;;;22.40;56.20;;;;;;5031037;28;20194;-70
2024/03/16 02:44:03;;;;;;;2.07;1.87;;;22.40;56.20;;;;;;5012924;28;20453;-70
2024/03/16 02:46:29;;;;;;;1.63;1.40;;;22.40;56.20;;;;;;5030868;28;20520;-70
2024/03/16 02:48:54;;;;;;;3.67;1.90;;;22.40;56.20;;;;;;5030879;28;20402;-70
2024/03/16 02:51:20;;;;;;;2.50;2.00;;;22.40;56.20;;;;;;5030771;28;20217;-70
2024/03/16 02:53:46;;;;;;;2.50;1.70;;;22.40;56.20;;;;;;5030671;28;20182;-69
2024/03/16 02:56:12;;;;;;;3.50;1.90;;;22.40;56.20;;;;;;5030720;28;20183;-70
2024/03/16 02:58:39;;;;;;;3.60;1.70;;;22.40;56.20;;;;;;5030900;28;20179;-69
2024/03/16 03:01:05;;;;;;;2.67;1.90;;;22.40;56.20;;;;;;5030492;28;20402;-68
2024/03/16 03:03:30;;;;;;;3.27;1.80;;;22.40;56.20;;;;;;5030613;28;20414;-70
2024/03/16 03:05:56;;;;;;;2.53;2.00;;;22.40;56.20;;;;;;5030449;28;20225;-70
2024/03/16 03:08:22;;;;;;;2.13;1.70;;;22.40;56.20;;;;;;5030776;28;20182;-70
2024/03/16 03:10:47;;;;;;;2.40;2.20;;;22.40;56.20;;;;;;5030519;28;20255;-70
2024/03/16 03:13:13;;;;;;;1.90;1.70;;;22.40;56.20;;;;;;5030408;28;20255;-70
2024/03/16 03:15:38;;;;;;;4.33;1.60;;;22.40;56.20;;;;;;5030310;28;20973;-70
2024/03/16 03:18:05;;;;;;;2.13;1.70;;;22.40;56.20;;;;;;5030333;28;20179;-70
2024/03/16 03:20:32;;;;;;;2.30;1.77;;;22.40;56.20;;;;;;5030287;28;20592;-70
2024/03/16 03:22:58;;;;;;;5.63;1.77;;;22.40;56.20;;;;;;5030261;28;20414;-70
2024/03/16 03:25:24;;;;;;;2.53;1.90;;;22.40;56.20;;;;;;5030224;28;20422;-70
2024/03/16 03:27:49;;;;;;;2.50;2.03;;;22.40;56.20;;;;;;5030055;28;20286;-71
2024/03/16 03:30:15;;;;;;;1.80;1.50;;;22.40;56.20;;;;;;5030242;28;20175;-70
2024/03/16 03:32:40;;;;;;;2.00;1.73;;;22.40;56.20;;;;;;5030143;28;20184;-70
2024/03/16 03:35:06;;;;;;;2.30;1.63;;;22.40;56.20;;;;;;5030004;28;20292;-70
2024/03/16 03:37:32;;;;;;;2.30;1.80;;;22.40;56.20;;;;;;5030126;28;20187;-70
2024/03/16 03:39:57;;;;;;;3.30;1.60;;;22.40;56.20;;;;;;5030127;28;20485;-70
2024/03/16 03:42:29;;;;;;;1.63;1.43;;;22.40;56.20;;;;;;5030055;28;20291;-70
2024/03/16 03:50:28;;;;;;;2.30;1.60;;;22.30;56.10;;;;;;5030039;28;20449;-70
2024/03/16 03:52:55;;;;;;;2.30;2.07;;;22.30;56.10;;;;;;5030168;28;20452;-70
2024/03/16 03:55:21;;;;;;;6.50;2.90;;;22.30;56.10;;;;;;5029895;28;20470;-70
2024/03/16 03:57:47;;;;;;;2.03;1.37;;;22.30;56.10;;;;;;5033798;28;20445;-70
2024/03/16 04:00:13;;;;;;;2.33;1.80;;;22.30;56.10;;;;;;5034064;28;20454;-70
2024/03/16 04:02:39;;;;;;;2.43;1.80;;;22.30;56.10;;;;;;5033970;28;20214;-70
2024/03/16 04:05:05;;;;;;;1.77;1.40;;;22.30;56.10;;;;;;5034094;28;20458;-70
2024/03/16 04:07:30;;;;;;;1.97;1.50;;;22.30;56.10;;;;;;5015963;28;20214;-70
2024/03/16 04:09:56;;;;;;;2.13;1.70;;;22.30;56.10;;;;;;5033810;28;20774;-70
2024/03/16 04:12:21;;;;;;;2.30;1.47;;;22.30;56.10;;;;;;5033795;28;20179;-70
2024/03/16 04:14:47;;;;;;;2.80;1.80;;;22.30;56.10;;;;;;5033744;28;20188;-70
2024/03/16 04:17:12;;;;;;;2.00;1.63;;;22.30;56.10;;;;;;5033797;28;20176;-70
2024/03/16 04:19:38;;;;;;;1.80;1.60;;;22.30;56.10;;;;;;5033687;28;20179;-70
2024/03/16 04:22:05;;;;;;;2.43;1.40;;;22.30;56.10;;;;;;5033673;28;20178;-70
2024/03/16 04:24:30;;;;;;;1.63;1.40;;;22.30;56.10;;;;;;5033755;28;20238;-69
2024/03/16 04:26:56;;;;;;;2.97;2.20;;;22.30;56.10;;;;;;5033382;28;20896;-70
2024/03/16 04:29:21;;;;;;;2.47;2.27;;;22.30;56.10;;;;;;5033407;28;20182;-70
2024/03/16 04:31:47;;;;;;;1.97;1.53;;;22.30;56.10;;;;;;5033712;28;20176;-71
2024/03/16 04:34:13;;;;;;;2.23;1.70;;;22.30;56.10;;;;;;5033349;28;20271;-70
2024/03/16 04:36:38;;;;;;;2.07;1.77;;;22.30;56.10;;;;;;5033356;28;20975;-70
2024/03/16 04:39:05;;;;;;;1.77;1.40;;;22.30;56.10;;;;;;5033364;28;20175;-69
2024/03/16 04:41:30;;;;;;;2.80;1.73;;;22.30;56.10;;;;;;5033273;28;20175;-71
2024/03/16 04:43:56;;;;;;;2.00;1.60;;;22.30;56.10;;;;;;5033140;28;20422;-70
2024/03/16 04:46:23;;;;;;;1.77;1.33;;;22.30;56.10;;;;;;5033264;28;20663;-70
2024/03/16 04:48:48;;;;;;;1.97;1.47;;;22.30;56.10;;;;;;5033228;28;20410;-70
2024/03/16 04:51:14;;;;;;;2.10;1.70;;;22.30;56.10;;;;;;5033133;28;20409;-70
2024/03/16 04:53:40;;;;;;;1.60;1.50;;;22.30;56.20;;;;;;5015329;28;20178;-70
2024/03/16 04:56:06;;;;;;;2.13;1.70;;;22.30;56.10;;;;;;5033057;28;21084;-70
2024/03/16 04:58:32;;;;;;;1.80;1.53;;;22.30;56.10;;;;;;5032916;28;20226;-70
2024/03/16 05:01:00;;;;;;;1.60;1.30;;;22.30;56.10;;;;;;5032896;28;20406;-70
2024/03/16 05:03:26;;;;;;;2.23;1.50;;;22.30;56.10;;;;;;5015010;28;20186;-70
2024/03/16 05:05:52;;;;;;;2.03;1.57;;;22.30;56.10;;;;;;5032678;28;22388;-70
2024/03/16 05:08:18;;;;;;;2.60;1.50;;;22.30;56.10;;;;;;5031672;28;20429;-70
2024/03/16 05:10:49;;;;;;;2.13;1.70;;;22.30;56.10;;;;;;5014901;28;20179;-71
2024/03/16 05:13:15;;;;;;;1.30;1.20;;;22.30;56.10;;;;;;5032882;28;20961;-70
2024/03/16 05:15:41;;;;;;;1.90;1.50;;;22.30;56.10;;;;;;5032584;28;20437;-70
2024/03/16 05:18:06;;;;;;;2.60;1.53;;;22.30;56.10;;;;;;5032689;28;20638;-71
2024/03/16 05:20:32;;;;;;;1.97;1.67;;;22.30;56.10;;;;;;5032550;28;20168;-70
2024/03/16 05:22:57;;;;;;;1.97;1.63;;;22.30;56.10;;;;;;5032626;28;20222;-70
2024/03/16 05:25:23;;;;;;;2.30;1.70;;;22.30;56.10;;;;;;5032432;28;20190;-70
2024/03/16 05:27:48;;;;;;;2.10;1.50;;;22.30;56.10;;;;;;5032396;28;20273;-70
2024/03/16 05:30:15;;;;;;;1.80;1.43;;;22.30;56.10;;;;;;5032379;28;20255;-71
2024/03/16 05:32:41;;;;;;;3.70;1.77;;;22.30;56.10;;;;;;5014757;28;20172;-70
2024/03/16 05:35:08;;;;;;;3.13;2.03;;;22.30;56.10;;;;;;5032321;28;20809;-70
2024/03/16 05:37:35;;;;;;;1.97;1.57;;;22.30;56.10;;;;;;5032604;28;20266;-68
2024/03/16 05:40:01;;;;;;;1.67;1.40;;;22.30;56.10;;;;;;5032282;28;20414;-70
2024/03/16 05:42:27;;;;;;;1.83;1.50;;;22.30;56.10;;;;;;5032241;28;20437;-70
2024/03/16 05:44:52;;;;;;;1.97;1.70;;;22.30;56.10;;;;;;5032175;28;20884;-70
2024/03/16 05:47:21;;;;;;;2.10;1.70;;;22.30;56.10;;;;;;5032119;28;20196;-69
2024/03/16 05:49:47;;;;;;;1.87;1.53;;;22.30;56.10;;;;;;5032067;28;20172;-70
2024/03/16 05:52:13;;;;;;;1.70;1.43;;;22.30;56.10;;;;;;5032221;28;20964;-69
2024/03/16 05:54:38;;;;;;;2.70;1.60;;;22.30;56.10;;;;;;5031976;28;20913;-70
2024/03/16 05:57:04;;;;;;;1.50;1.40;;;22.30;56.10;;;;;;5032002;28;20179;-70
2024/03/16 05:59:30;;;;;;;1.57;1.30;;;22.30;56.10;;;;;;5031885;28;20179;-70
2024/03/16 06:01:55;;;;;;;1.90;1.43;;;22.30;56.10;;;;;;5031932;28;20594;-70
2024/03/16 06:04:21;;;;;;;1.60;1.30;;;22.30;56.10;;;;;;5031827;28;20210;-70
2024/03/16 06:06:47;;;;;;;2.43;1.40;;;22.30;56.10;;;;;;5031676;28;20214;-69
2024/03/16 06:09:13;;;;;;;1.90;1.27;;;22.30;56.10;;;;;;5031771;28;20544;-71
2024/03/16 06:11:38;;;;;;;1.93;1.53;;;22.30;56.10;;;;;;5031916;28;20174;-69
2024/03/16 06:14:09;;;;;;;1.50;1.30;;;22.30;56.10;;;;;;5031624;28;20238;-70
2024/03/16 06:16:37;;;;;;;2.00;1.77;;;22.30;56.10;;;;;;5031636;28;20152;-71
2024/03/16 06:19:03;;;;;;;1.60;1.30;;;22.30;56.10;;;;;;5031427;28;20861;-70
2024/03/16 06:21:29;;;;;;;2.00;1.40;;;22.30;56.20;;;;;;5031437;28;20406;-71
2024/03/16 06:23:54;;;;;;;1.73;1.27;;;22.30;56.20;;;;;;5031428;28;20814;-70
2024/03/16 06:26:20;;;;;;;1.73;1.60;;;22.30;56.20;;;;;;5031367;28;20862;-70
2024/03/16 06:28:56;;;;;;;1.87;1.67;;;22.30;56.20;;;;;;5031423;28;20314;-70
2024/03/16 06:31:31;;;;;;;1.50;1.40;;;22.30;56.20;;;;;;5031325;28;20239;-70
2024/03/16 06:33:58;;;;;;;1.73;1.33;;;22.30;56.20;;;;;;5031284;28;20529;-69
2024/03/16 06:36:24;;;;;;;2.00;1.33;;;22.30;56.20;;;;;;5031297;28;20862;-70
2024/03/16 06:38:50;;;;;;;2.10;1.50;;;22.30;56.20;;;;;;5031181;28;20542;-70
2024/03/16 06:41:15;;;;;;;2.70;1.37;;;22.30;56.20;;;;;;5031195;28;20167;-70
2024/03/16 06:43:41;;;;;;;2.03;1.27;;;22.30;56.20;;;;;;5031224;28;20183;-71
2024/03/16 06:46:08;;;;;;;2.33;1.50;;;22.30;56.20;;;;;;5030973;28;20207;-70
2024/03/16 06:48:34;;;;;;;1.87;1.37;;;22.30;56.20;;;;;;5031072;28;20171;-70
2024/03/16 06:50:59;;;;;;;3.40;1.47;;;22.30;56.20;;;;;;5031040;28;21156;-70
2024/03/16 06:53:26;;;;;;;2.30;1.97;;;22.30;56.20;;;;;;5030921;28;20168;-71
2024/03/16 06:55:52;;;;;;;1.77;1.40;;;22.30;56.20;;;;;;5030762;28;20192;-70
2024/03/16 06:58:17;;;;;;;2.03;1.40;;;22.30;56.20;;;;;;5031073;28;20472;-69
2024/03/16 07:00:43;;;;;;;2.07;1.87;;;22.30;56.20;;;;;;5030843;28;20539;-71
2024/03/16 07:03:10;;;;;;;2.37;1.40;;;22.30;56.20;;;;;;5030578;28;20736;-70
2024/03/16 07:05:37;;;;;;;1.70;1.30;;;22.30;56.20;;;;;;5030675;28;20464;-69
2024/03/16 07:08:03;;;;;;;1.70;1.40;;;22.30;56.20;;;;;;5030630;28;20453;-71
2024/03/16 07:10:29;;;;;;;1.43;1.33;;;22.30;56.20;;;;;;5012679;28;20461;-71
2024/03/16 07:12:54;;;;;;;2.33;1.60;;;22.30;56.20;;;;;;5012919;28;20427;-70
2024/03/16 07:15:20;;;;;;;3.00;1.30;;;22.30;56.20;;;;;;5030470;28;20911;-70
2024/03/16 07:17:45;;;;;;;2.03;1.50;;;22.30;56.20;;;;;;5012792;28;20218;-70
2024/03/16 07:20:12;;;;;;;3.00;1.57;;;22.30;56.10;;;;;;5030486;28;20267;-70
2024/03/16 07:22:38;;;;;;;2.20;1.70;;;22.30;56.20;;;;;;5030378;28;20190;-70
2024/03/16 07:25:05;;;;;;;1.57;1.20;;;22.30;56.20;;;;;;5030595;28;20434;-70
2024/03/16 07:27:31;;;;;;;1.97;1.50;;;22.30;56.20;;;;;;5030314;28;20256;-70
2024/03/16 07:29:56;;;;;;;1.60;1.20;;;22.30;56.20;;;;;;5030102;28;20410;-70
2024/03/16 07:32:22;;;;;;;3.50;1.50;;;22.40;56.20;;;;;;5029823;28;20174;-70
2024/03/16 07:34:48;;;;;;;1.83;1.40;;;22.30;56.20;;;;;;5030207;28;20183;-70
2024/03/16 07:37:15;;;;;;;3.63;1.70;;;22.40;56.20;;;;;;5030220;28;20172;-71
2024/03/16 07:39:41;;;;;;;1.87;1.10;;;22.40;56.20;;;;;;5030146;28;20464;-70
2024/03/16 07:42:06;;;;;;;2.10;1.40;;;22.40;56.20;;;;;;5030433;28;20426;-70
2024/03/16 07:44:34;;;;;;;2.90;1.43;;;22.40;56.20;;;;;;5030375;28;20226;-70
2024/03/16 07:47:00;;;;;;;1.90;1.10;;;22.40;56.20;;;;;;5030043;28;20191;-70
2024/03/16 07:49:26;;;;;;;3.83;1.63;;;22.40;56.20;;;;;;5030412;28;20418;-70
2024/03/16 07:51:51;;;;;;;2.50;1.40;;;22.40;56.10;;;;;;5030018;28;20417;-70
2024/03/16 07:54:17;;;;;;;1.77;1.10;;;22.40;56.10;;;;;;5029854;28;20617;-70
2024/03/16 07:56:42;;;;;;;2.20;1.20;;;22.40;56.10;;;;;;5030036;28;20183;-69
2024/03/16 07:59:09;;;;;;;2.00;1.40;;;22.40;56.10;;;;;;5029983;28;20175;-70
2024/03/16 08:01:36;;;;;;;1.83;1.13;;;22.40;56.10;;;;;;5029806;28;20179;-70
2024/03/16 08:04:02;;;;;;;2.90;1.20;;;22.40;56.10;;;;;;5029862;28;20434;-70
2024/03/16 08:06:27;;;;;;;1.33;1.10;;;22.40;56.10;;;;;;5029851;28;20551;-70
2024/03/16 08:08:53;;;;;;;2.50;1.50;;;22.40;56.10;;;;;;5029890;28;20465;-70
2024/03/16 08:11:21;;;;;;;2.00;1.17;;;22.40;56.10;;;;;;5029379;28;20254;-69
2024/03/16 08:13:47;;;;;;;1.30;1.00;;;22.40;56.10;;;;;;5027945;28;20175;-70
2024/03/16 08:16:13;;;;;;;2.07;1.30;;;22.40;56.10;;;;;;5029528;28;20418;-70
2024/03/16 08:18:38;;;;;;;2.07;1.30;;;22.40;56.10;;;;;;5029537;28;20178;-69
2024/03/16 08:21:04;;;;;;;2.60;1.07;;;22.40;56.10;;;;;;5029412;28;20176;-71
2024/03/16 08:23:30;;;;;;;2.43;0.90;;;22.40;56.00;;;;;;5029425;28;20176;-70
2024/03/16 08:25:56;;;;;;;1.50;1.00;;;22.40;56.00;;;;;;5029285;28;20602;-71
2024/03/16 08:28:22;;;;;;;1.73;1.40;;;22.40;56.00;;;;;;5029483;28;20174;-70
2024/03/16 08:30:48;;;;;;;1.50;1.13;;;22.40;56.00;;;;;;5029639;28;20172;-70
2024/03/16 08:33:13;;;;;;;1.67;1.20;;;22.40;56.00;;;;;;5011557;28;20799;-70
2024/03/16 08:35:39;;;;;;;2.17;1.10;;;22.40;56.00;;;;;;5011550;28;20206;-69
2024/03/16 08:38:05;;;;;;;2.30;1.30;;;22.40;56.00;;;;;;5011520;28;20226;-70
2024/03/16 08:40:30;;;;;;;1.93;1.10;;;22.40;56.00;;;;;;5029245;28;20183;-68
2024/03/16 08:42:57;;;;;;;1.97;1.33;;;22.50;56.10;;;;;;5031461;28;20262;-69
2024/03/16 08:45:23;;;;;;;1.70;1.20;;;22.40;56.00;;;;;;5032825;28;20215;-70
2024/03/16 08:47:49;;;;;;;1.83;1.27;;;22.40;56.00;;;;;;5033425;28;20464;-71
2024/03/16 08:50:15;;;;;;;2.63;1.40;;;22.50;56.10;;;;;;5033240;28;20410;-70
2024/03/16 08:52:41;;;;;;;1.63;1.13;;;22.50;56.10;;;;;;5033195;28;20205;-70
2024/03/16 08:55:12;;;;;;;1.87;1.17;;;22.50;56.10;;;;;;5033006;28;20202;-70
2024/03/16 08:57:38;;;;;;;1.87;1.00;;;22.50;56.00;;;;;;5033009;28;20386;-70
2024/03/16 09:00:05;;;;;;;1.90;1.00;;;22.50;56.10;;;;;;5033045;28;20414;-70
2024/03/16 09:02:31;;;;;;;1.60;0.93;;;22.50;56.00;;;;;;5015413;28;20466;-70
2024/03/16 09:04:56;;;;;;;2.30;1.00;;;22.50;56.00;;;;;;5032815;28;20438;-70
2024/03/16 09:07:23;;;;;;;1.30;1.10;;;22.50;56.60;;;;;;5032788;28;20299;-69
2024/03/16 09:09:49;;;;;;;1.60;1.20;;;22.50;56.10;;;;;;5015079;28;20543;-70
2024/03/16 09:12:15;;;;;;;1.80;1.13;;;22.50;56.10;;;;;;5033055;28;20548;-69
2024/03/16 09:14:40;;;;;;;2.07;1.13;;;22.50;56.10;;;;;;5032720;28;20684;-71
2024/03/16 09:17:07;;;;;;;1.23;0.87;;;22.50;56.10;;;;;;5032802;28;20180;-70
2024/03/16 09:19:32;;;;;;;2.60;1.20;;;22.50;56.10;;;;;;5033001;28;20178;-70
2024/03/16 09:21:58;;;;;;;2.10;1.10;;;22.50;56.10;;;;;;5032653;28;20779;-70
2024/03/16 09:24:24;;;;;;;2.53;1.30;;;22.50;56.10;;;;;;5032640;28;20191;-70
2024/03/16 09:26:49;;;;;;;3.40;1.33;;;22.50;56.10;;;;;;5032385;28;20450;-70
2024/03/16 09:29:16;;;;;;;1.27;1.00;;;22.50;56.10;;;;;;5032478;28;20176;-68
2024/03/16 09:31:41;;;;;;;1.60;1.20;;;22.50;56.10;;;;;;5032443;28;20221;-70
2024/03/16 09:34:08;;;;;;;1.33;1.00;;;22.50;56.10;;;;;;5032450;28;20434;-70
2024/03/16 09:36:34;;;;;;;2.13;1.23;;;22.50;56.10;;;;;;5032462;28;20651;-70
2024/03/16 09:38:59;;;;;;;2.57;1.10;;;22.50;56.60;;;;;;5014536;28;20418;-70
2024/03/16 09:41:25;;;;;;;1.47;1.00;;;22.50;56.10;;;;;;5032339;28;21012;-70
2024/03/16 09:43:52;;;;;;;2.50;1.10;;;22.50;56.10;;;;;;5032481;28;20191;-71
2024/03/16 09:46:18;;;;;;;2.47;1.20;;;22.50;56.10;;;;;;5032171;28;20659;-71
2024/03/16 09:48:44;;;;;;;2.17;1.00;;;22.50;56.10;;;;;;5032395;28;20413;-70
2024/03/16 09:51:17;;;;;;;1.77;0.93;;;22.50;56.00;;;;;;5032090;28;20410;-70
2024/03/16 09:53:43;;;;;;;1.43;0.90;;;22.60;56.10;;;;;;5013273;28;20785;-70
2024/03/16 09:56:11;;;;;;;1.87;1.20;;;22.50;56.10;;;;;;5031951;28;20510;-69
2024/03/16 09:58:38;;;;;;;1.93;1.23;;;22.50;56.00;;;;;;5013986;28;20429;-70
2024/03/16 10:01:04;;;;;;;1.40;1.00;;;22.50;56.00;;;;;;5031937;28;20411;-69
2024/03/16 10:03:31;;;;;;;1.60;1.00;;;22.50;56.00;;;;;;5031814;28;20420;-71
2024/03/16 10:05:59;;;;;;;2.13;1.33;;;22.50;56.00;;;;;;5032015;28;20426;-71
2024/03/16 10:08:28;;;;;;;2.10;1.57;;;22.50;56.00;;;;;;5031849;28;20417;-70
2024/03/16 10:11:10;;;;;;;3.17;1.57;;;22.50;56.00;;;;;;5013822;28;20449;-71
2024/03/16 10:13:39;;;;;;;2.40;1.03;;;22.60;56.10;;;;;;5031631;28;20410;-69
2024/03/16 10:16:11;;;;;;;2.10;1.10;;;22.60;56.10;;;;;;5013793;28;20418;-70
2024/03/16 10:18:37;;;;;;;1.60;1.27;;;22.50;56.10;;;;;;5031589;28;20428;-70
2024/03/16 10:21:03;;;;;;;2.03;1.23;;;22.60;56.10;;;;;;5031508;28;20857;-70
2024/03/16 10:23:30;;;;;;;2.10;1.13;;;22.60;56.10;;;;;;5013731;28;20560;-70
2024/03/16 10:25:56;;;;;;;2.07;1.23;;;22.60;56.20;;;;;;5031282;28;20434;-71
2024/03/16 10:28:22;;;;;;;1.40;0.93;;;22.50;56.10;;;;;;5031445;28;20786;-71
2024/03/16 10:30:49;;;;;;;2.60;1.10;;;22.60;56.10;;;;;;5031341;28;20168;-71
2024/03/16 10:33:18;;;;;;;1.47;1.10;;;22.50;56.00;;;;;;5031289;28;20413;-71
2024/03/16 10:35:45;;;;;;;1.33;0.90;;;22.60;56.10;;;;;;5031178;28;20434;-70
2024/03/16 10:38:14;;;;;;;1.30;0.87;;;22.60;56.10;;;;;;5031247;28;20429;-69
2024/03/16 10:40:40;;;;;;;2.20;1.07;;;22.60;56.70;;;;;;5031182;28;20403;-70
2024/03/16 10:43:15;;;;;;;2.60;1.20;;;22.60;56.10;;;;;;5031549;28;20948;-71
2024/03/16 10:45:47;;;;;;;1.17;0.90;;;22.60;56.10;;;;;;5030936;28;20523;-70
2024/03/16 10:48:18;;;;;;;1.10;1.00;;;22.60;56.40;;;;;;5031232;28;20472;-71
2024/03/16 10:50:46;;;;;;;1.20;1.00;;;22.60;56.20;;;;;;5031030;28;20399;-71
2024/03/16 10:53:13;;;;;;;1.90;1.27;;;22.60;56.20;;;;;;5030769;28;20450;-71
2024/03/16 10:55:39;;;;;;;1.70;1.00;;;22.60;56.20;;;;;;5030684;28;20951;-71
2024/03/16 10:58:22;;;;;;;1.30;1.20;;;22.60;56.20;;;;;;5031140;28;20419;-71
2024/03/16 11:00:51;;;;;;;1.40;0.90;;;22.60;56.10;;;;;;5030882;28;20167;-69
2024/03/16 11:03:29;;;;;;;1.37;0.90;;;22.60;56.20;;;;;;5030901;28;20406;-70
2024/03/16 11:06:12;;;;;;;2.87;1.03;;;22.60;56.20;;;;;;5030645;28;20458;-70
2024/03/16 11:08:45;;;;;;;2.10;1.20;;;22.60;56.20;;;;;;5031065;28;20777;-70
2024/03/16 11:11:15;;;;;;;2.77;1.47;;;22.60;56.20;;;;;;5030762;28;20762;-70
2024/03/16 11:14:05;;;;;;;1.90;1.17;;;22.60;56.20;;;;;;5030607;28;20403;-70
2024/03/16 11:16:34;;;;;;;2.30;1.10;;;22.60;56.10;;;;;;5030932;28;20440;-71
2024/03/16 11:19:07;;;;;;;2.43;1.60;;;22.60;56.20;;;;;;5030585;28;20411;-70
2024/03/16 11:21:38;;;;;;;2.13;1.40;;;22.60;56.10;;;;;;5030765;28;20890;-71
2024/03/16 11:24:13;;;;;;;2.10;1.57;;;22.60;56.20;;;;;;5012705;28;20450;-70
2024/03/16 11:26:40;;;;;;;2.13;1.20;;;22.60;56.10;;;;;;5030403;28;20438;-71
2024/03/16 11:29:22;;;;;;;1.70;1.30;;;22.60;56.10;;;;;;5030370;28;20554;-71
2024/03/16 11:31:53;;;;;;;1.73;1.40;;;22.60;56.10;;;;;;5030351;28;20822;-71
2024/03/16 11:34:22;;;;;;;2.07;1.10;;;22.60;56.10;;;;;;5030293;28;21245;-71
2024/03/16 11:36:53;;;;;;;1.77;1.00;;;22.60;56.10;;;;;;5030143;28;20832;-71
2024/03/16 11:39:27;;;;;;;1.80;1.47;;;22.60;56.10;;;;;;5030237;28;20391;-71
2024/03/16 11:41:55;;;;;;;2.40;1.53;;;22.60;56.10;;;;;;5030171;28;20413;-70
2024/03/16 11:44:21;;;;;;;2.73;1.30;;;22.60;56.10;;;;;;5012185;28;20560;-70
2024/03/16 11:46:48;;;;;;;1.63;1.10;;;22.60;56.10;;;;;;5030094;28;20553;-70
2024/03/16 11:49:17;;;;;;;1.80;1.17;;;22.70;56.20;;;;;;5030175;28;20175;-70
2024/03/16 11:51:47;;;;;;;2.00;1.20;;;22.70;56.20;;;;;;5029941;28;20410;-68
2024/03/16 11:54:14;;;;;;;3.00;1.20;;;22.70;56.20;;;;;;5029813;28;20457;-71
2024/03/16 11:56:41;;;;;;;2.07;1.47;;;22.70;56.20;;;;;;5030003;28;21248;-72
2024/03/16 11:59:12;;;;;;;1.17;0.97;;;22.70;56.20;;;;;;5030048;28;20525;-71
2024/03/16 12:01:38;;;;;;;1.30;1.00;;;22.70;56.20;;;;;;5030252;28;20926;-70
2024/03/16 12:04:06;;;;;;;1.27;1.00;;;22.70;56.20;;;;;;5029883;28;20445;-71
2024/03/16 12:06:33;;;;;;;2.30;1.50;;;22.70;56.20;;;;;;5029774;28;20544;-71
2024/03/16 12:08:59;;;;;;;1.93;1.33;;;22.70;56.20;;;;;;5029813;28;20406;-72
2024/03/16 12:11:27;;;;;;;2.17;1.00;;;22.70;56.20;;;;;;5030109;28;20492;-70
2024/03/16 12:14:08;;;;;;;3.03;1.70;;;22.70;56.20;;;;;;5029722;28;21132;-71
2024/03/16 12:16:36;;;;;;;2.20;1.23;;;22.70;56.20;;;;;;5029932;28;20387;-71
2024/03/16 12:19:02;;;;;;;1.93;1.20;;;22.70;56.20;;;;;;5033566;28;20476;-72
2024/03/16 12:21:27;;;;;;;2.13;1.20;;;22.60;56.10;;;;;;5015882;28;20422;-71
2024/03/16 12:23:53;;;;;;;3.33;1.17;;;22.70;56.20;;;;;;5033617;28;20199;-71
2024/03/16 12:26:25;;;;;;;1.27;1.17;;;22.70;56.20;;;;;;5033582;28;20223;-72
2024/03/16 12:28:51;;;;;;;3.17;1.30;;;22.70;56.20;;;;;;5033596;28;20700;-71
2024/03/16 12:31:18;;;;;;;2.07;1.83;;;22.70;56.20;;;;;;5033604;28;20402;-71
2024/03/16 12:33:44;;;;;;;3.13;2.90;;;22.70;56.20;;;;;;5015760;28;20913;-72
2024/03/16 12:36:10;;;;;;;2.43;1.17;;;22.70;56.20;;;;;;5033487;28;20453;-72
2024/03/16 12:38:35;;;;;;;2.47;1.50;;;22.70;56.20;;;;;;5033406;28;20198;-71
2024/03/16 12:41:01;;;;;;;1.70;1.10;;;22.70;56.20;;;;;;5033435;28;20176;-72
2024/03/16 12:43:27;;;;;;;1.83;1.30;;;22.70;56.20;;;;;;5033293;28;20894;-70
2024/03/16 12:45:53;;;;;;;2.80;1.50;;;22.70;56.20;;;;;;5033074;28;20219;-71
2024/03/16 12:48:19;;;;;;;2.10;1.50;;;22.70;56.20;;;;;;5033275;28;21057;-72
2024/03/16 12:50:45;;;;;;;1.60;1.27;;;22.70;56.20;;;;;;5033410;28;20206;-71